HELX  Luxor International  Airport

Luxor, Egypt

Add Bookmark
ICAO HELX
IATA LXR
Type Airport
Status Operational
Latitude
25° 40' 15" N
25.671000
Longitude
32° 42' 23" E
32.706600
Local (GMT +2 ) UTC
Dec 7, 2016 04:23 pm Dec 7, 2016 14:23
Sunrise-Sunset Local UTC
Begin Civil Twilight 05:56 am 03:56
Sunrise 06:21 am 04:21
Sunset 04:59 pm 14:59
End Civil Twilight 05:24 pm 15:24
VFR
VFR
MVFR
MVFR
IFR
IFR
LIFR
LIFR
Unknown
No Data

Current Weather

METAR Observed VFR
HELX 071400Z 00000KT CAVOK 25/09 Q1017 NOSIG Wed, Dec 7, 2016 @ 14:00 UTC
(23 Minutes ago)
Visual Flight Rules
Wind Visibility Conditions
Calm 10 km or more
  • No significant weather
Temperatures Readings Precipitation
Current Temp
25°C
77°F
Dewpoint
9°C
48°F
Humidity 36%
Altimeter 30.03" Hg
Sea Level Pressure 1,017 mb
Field Elevation
88 m
289 ft
None Recorded

Forecast Weather

TAF
TAF HELX 071100Z 0712/0818 31008KT CAVOK
From To
Wed, Dec 7, 2016 @ 12:00 UTC Thu, Dec 8, 2016 @ 18:00 UTC
Wind Visibility Conditions
310° at 8 knots (15 kph) 10 km or more
  • No significant weather
-
-

CheckWX.com is intended as a tool to help pilots better visualize weather data. It is not intended as a substitute for an official weather briefing obtained from a Flight Service Station. CheckWX.com does not meet the FAA requirements for an official pre-flight weather briefing. Therefore, it's important that pilots still call and obtain an official FSS pre-flight weather briefing.

© 2007-2016 CheckWX.com
14:23:35 UTC